sensor_id;sensor_type;location;lat;lon;timestamp;pressure;altitude;pressure_sealevel;temperature;humidity
14204;BME280;7185;51.854;6.622;2022-08-19T00:01:44;101031.66;;;20.46;100.00
14204;BME280;7185;51.854;6.622;2022-08-19T00:04:18;101026.56;;;20.42;100.00
14204;BME280;7185;51.854;6.622;2022-08-19T00:06:51;101020.50;;;20.40;100.00
14204;BME280;7185;51.854;6.622;2022-08-19T00:09:24;101026.13;;;20.33;100.00
14204;BME280;7185;51.854;6.622;2022-08-19T00:11:57;101032.41;;;20.32;100.00
14204;BME280;7185;51.854;6.622;2022-08-19T00:14:30;101032.94;;;20.39;100.00
14204;BME280;7185;51.854;6.622;2022-08-19T00:17:03;101028.31;;;20.43;100.00
14204;BME280;7185;51.854;6.622;2022-08-19T00:19:37;101031.16;;;20.40;100.00
14204;BME280;7185;51.854;6.622;2022-08-19T00:22:08;101023.44;;;20.33;100.00
14204;BME280;7185;51.854;6.622;2022-08-19T00:24:40;101024.56;;;20.29;100.00
14204;BME280;7185;51.854;6.622;2022-08-19T00:27:13;101025.81;;;20.22;100.00
14204;BME280;7185;51.854;6.622;2022-08-19T00:29:47;101023.03;;;20.25;100.00
14204;BME280;7185;51.854;6.622;2022-08-19T00:32:19;101034.00;;;20.19;100.00
14204;BME280;7185;51.854;6.622;2022-08-19T00:34:52;101037.59;;;20.18;100.00
14204;BME280;7185;51.854;6.622;2022-08-19T00:37:24;101035.88;;;20.17;100.00
14204;BME280;7185;51.854;6.622;2022-08-19T00:39:56;101043.84;;;20.17;100.00
14204;BME280;7185;51.854;6.622;2022-08-19T00:42:28;101043.22;;;20.12;100.00
14204;BME280;7185;51.854;6.622;2022-08-19T00:45:03;101040.84;;;20.05;100.00
14204;BME280;7185;51.854;6.622;2022-08-19T00:47:40;101034.91;;;20.00;100.00
14204;BME280;7185;51.854;6.622;2022-08-19T00:50:14;101042.09;;;19.98;100.00
14204;BME280;7185;51.854;6.622;2022-08-19T00:52:49;101032.66;;;19.93;100.00
14204;BME280;7185;51.854;6.622;2022-08-19T00:55:24;101021.44;;;19.86;100.00
14204;BME280;7185;51.854;6.622;2022-08-19T00:58:01;101026.78;;;19.86;100.00
14204;BME280;7185;51.854;6.622;2022-08-19T01:00:36;101026.47;;;19.92;100.00
14204;BME280;7185;51.854;6.622;2022-08-19T01:03:10;101024.59;;;19.94;100.00
14204;BME280;7185;51.854;6.622;2022-08-19T01:05:43;101026.78;;;19.86;100.00
14204;BME280;7185;51.854;6.622;2022-08-19T01:08:17;101027.75;;;19.83;100.00
14204;BME280;7185;51.854;6.622;2022-08-19T01:10:52;101023.59;;;19.78;100.00
14204;BME280;7185;51.854;6.622;2022-08-19T01:13:26;101022.03;;;19.73;100.00
14204;BME280;7185;51.854;6.622;2022-08-19T01:16:03;101020.19;;;19.75;100.00
14204;BME280;7185;51.854;6.622;2022-08-19T01:18:39;101020.41;;;19.71;100.00
14204;BME280;7185;51.854;6.622;2022-08-19T01:21:16;101018.44;;;19.74;100.00
14204;BME280;7185;51.854;6.622;2022-08-19T01:23:52;101026.50;;;19.73;100.00
14204;BME280;7185;51.854;6.622;2022-08-19T01:26:25;101012.41;;;19.71;100.00
14204;BME280;7185;51.854;6.622;2022-08-19T01:28:58;101021.41;;;19.68;100.00
14204;BME280;7185;51.854;6.622;2022-08-19T01:31:31;101019.84;;;19.64;100.00
14204;BME280;7185;51.854;6.622;2022-08-19T01:34:03;101020.94;;;19.60;100.00
14204;BME280;7185;51.854;6.622;2022-08-19T01:36:37;101023.28;;;19.49;100.00
14204;BME280;7185;51.854;6.622;2022-08-19T01:39:13;101027.63;;;19.50;100.00
14204;BME280;7185;51.854;6.622;2022-08-19T01:41:45;101026.69;;;19.51;100.00
14204;BME280;7185;51.854;6.622;2022-08-19T01:44:17;101026.59;;;19.52;100.00
14204;BME280;7185;51.854;6.622;2022-08-19T01:46:51;101025.28;;;19.43;100.00
14204;BME280;7185;51.854;6.622;2022-08-19T01:49:24;101027.31;;;19.38;100.00
14204;BME280;7185;51.854;6.622;2022-08-19T01:51:59;101019.19;;;19.41;100.00
14204;BME280;7185;51.854;6.622;2022-08-19T01:54:32;101022.47;;;19.47;100.00
14204;BME280;7185;51.854;6.622;2022-08-19T01:57:08;101021.53;;;19.48;100.00
14204;BME280;7185;51.854;6.622;2022-08-19T01:59:42;101026.44;;;19.38;100.00
14204;BME280;7185;51.854;6.622;2022-08-19T02:02:16;101026.88;;;19.29;100.00
14204;BME280;7185;51.854;6.622;2022-08-19T02:04:48;101019.13;;;19.24;100.00
14204;BME280;7185;51.854;6.622;2022-08-19T02:07:20;101029.63;;;19.27;100.00
14204;BME280;7185;51.854;6.622;2022-08-19T02:09:53;101030.19;;;19.34;100.00
14204;BME280;7185;51.854;6.622;2022-08-19T02:12:26;101033.63;;;19.36;100.00
14204;BME280;7185;51.854;6.622;2022-08-19T02:14:58;101033.84;;;19.31;100.00
14204;BME280;7185;51.854;6.622;2022-08-19T02:17:31;101038.25;;;19.32;100.00
14204;BME280;7185;51.854;6.622;2022-08-19T02:20:04;101032.91;;;19.32;100.00
14204;BME280;7185;51.854;6.622;2022-08-19T02:22:37;101032.75;;;19.35;100.00
14204;BME280;7185;51.854;6.622;2022-08-19T02:25:13;101025.16;;;19.27;100.00
14204;BME280;7185;51.854;6.622;2022-08-19T02:27:45;101024.31;;;19.27;100.00
14204;BME280;7185;51.854;6.622;2022-08-19T02:30:17;101027.19;;;19.22;100.00
14204;BME280;7185;51.854;6.622;2022-08-19T02:32:50;101020.06;;;19.23;100.00
14204;BME280;7185;51.854;6.622;2022-08-19T02:35:21;101021.28;;;19.16;100.00
14204;BME280;7185;51.854;6.622;2022-08-19T02:37:53;101026.91;;;19.09;100.00
14204;BME280;7185;51.854;6.622;2022-08-19T02:40:49;101021.03;;;19.03;100.00
14204;BME280;7185;51.854;6.622;2022-08-19T02:43:22;101025.63;;;18.99;100.00
14204;BME280;7185;51.854;6.622;2022-08-19T02:45:54;101032.78;;;18.97;100.00
14204;BME280;7185;51.854;6.622;2022-08-19T02:48:26;101026.25;;;19.04;100.00
14204;BME280;7185;51.854;6.622;2022-08-19T02:50:57;101040.25;;;19.08;100.00
14204;BME280;7185;51.854;6.622;2022-08-19T02:53:29;101040.19;;;19.09;100.00
14204;BME280;7185;51.854;6.622;2022-08-19T02:56:06;101042.13;;;19.06;100.00
14204;BME280;7185;51.854;6.622;2022-08-19T02:58:38;101034.38;;;19.01;100.00
14204;BME280;7185;51.854;6.622;2022-08-19T03:01:10;101031.06;;;18.96;100.00
14204;BME280;7185;51.854;6.622;2022-08-19T03:03:42;101037.69;;;18.86;100.00
14204;BME280;7185;51.854;6.622;2022-08-19T03:06:15;101050.78;;;18.90;100.00
14204;BME280;7185;51.854;6.622;2022-08-19T03:09:22;101041.94;;;18.90;100.00
14204;BME280;7185;51.854;6.622;2022-08-19T03:15:26;101046.88;;;18.99;100.00
14204;BME280;7185;51.854;6.622;2022-08-19T03:17:58;101039.38;;;19.07;100.00
14204;BME280;7185;51.854;6.622;2022-08-19T03:20:29;101035.28;;;19.00;100.00
14204;BME280;7185;51.854;6.622;2022-08-19T03:23:01;101035.25;;;19.02;100.00
14204;BME280;7185;51.854;6.622;2022-08-19T03:25:37;101045.16;;;18.98;100.00
14204;BME280;7185;51.854;6.622;2022-08-19T03:28:09;101044.59;;;18.90;100.00
14204;BME280;7185;51.854;6.622;2022-08-19T03:30:55;101043.81;;;18.88;100.00
14204;BME280;7185;51.854;6.622;2022-08-19T03:33:28;101043.81;;;18.88;100.00
14204;BME280;7185;51.854;6.622;2022-08-19T03:36:03;101050.13;;;18.85;100.00
14204;BME280;7185;51.854;6.622;2022-08-19T03:38:36;101040.59;;;18.81;100.00
14204;BME280;7185;51.854;6.622;2022-08-19T03:41:10;101047.13;;;18.74;100.00
14204;BME280;7185;51.854;6.622;2022-08-19T03:43:43;101037.34;;;18.74;100.00
14204;BME280;7185;51.854;6.622;2022-08-19T03:46:23;101030.44;;;18.70;100.00
14204;BME280;7185;51.854;6.622;2022-08-19T03:48:56;101032.16;;;18.71;100.00
14204;BME280;7185;51.854;6.622;2022-08-19T03:51:33;101033.59;;;18.78;100.00
14204;BME280;7185;51.854;6.622;2022-08-19T03:54:08;101041.44;;;18.82;100.00
14204;BME280;7185;51.854;6.622;2022-08-19T03:56:42;101034.69;;;18.74;100.00
14204;BME280;7185;51.854;6.622;2022-08-19T03:59:16;101033.44;;;18.62;100.00
14204;BME280;7185;51.854;6.622;2022-08-19T04:01:50;101031.88;;;18.58;100.00
14204;BME280;7185;51.854;6.622;2022-08-19T04:04:22;101032.88;;;18.56;100.00
14204;BME280;7185;51.854;6.622;2022-08-19T04:06:54;101029.81;;;18.44;100.00
14204;BME280;7185;51.854;6.622;2022-08-19T04:09:25;101029.03;;;18.42;100.00
14204;BME280;7185;51.854;6.622;2022-08-19T04:11:57;101029.03;;;18.42;100.00
14204;BME280;7185;51.854;6.622;2022-08-19T04:14:29;101030.25;;;18.35;100.00
14204;BME280;7185;51.854;6.622;2022-08-19T04:17:03;101025.19;;;18.29;100.00
14204;BME280;7185;51.854;6.622;2022-08-19T04:19:36;101021.31;;;18.36;100.00
14204;BME280;7185;51.854;6.622;2022-08-19T04:22:08;101018.00;;;18.31;100.00
14204;BME280;7185;51.854;6.622;2022-08-19T04:24:41;101023.59;;;18.25;100.00
14204;BME280;7185;51.854;6.622;2022-08-19T04:27:13;101028.06;;;18.24;100.00
14204;BME280;7185;51.854;6.622;2022-08-19T04:29:45;101032.69;;;18.19;100.00
14204;BME280;7185;51.854;6.622;2022-08-19T04:32:19;101018.81;;;18.12;100.00
14204;BME280;7185;51.854;6.622;2022-08-19T04:34:51;101023.97;;;18.15;100.00
14204;BME280;7185;51.854;6.622;2022-08-19T04:37:23;101028.44;;;18.15;100.00
14204;BME280;7185;51.854;6.622;2022-08-19T04:39:56;101026.72;;;18.14;100.00
14204;BME280;7185;51.854;6.622;2022-08-19T04:42:45;101027.72;;;18.11;100.00
14204;BME280;7185;51.854;6.622;2022-08-19T04:45:17;101030.44;;;18.10;100.00
14204;BME280;7185;51.854;6.622;2022-08-19T04:47:54;101040.63;;;18.19;100.00
14204;BME280;7185;51.854;6.622;2022-08-19T04:50:27;101045.44;;;18.31;100.00
14204;BME280;7185;51.854;6.622;2022-08-19T04:52:59;101049.75;;;18.34;100.00
14204;BME280;7185;51.854;6.622;2022-08-19T04:55:30;101046.16;;;18.35;100.00
14204;BME280;7185;51.854;6.622;2022-08-19T04:58:02;101049.88;;;18.31;100.00
14204;BME280;7185;51.854;6.622;2022-08-19T05:00:36;101052.53;;;18.31;100.00
14204;BME280;7185;51.854;6.622;2022-08-19T05:03:10;101049.59;;;18.37;100.00
14204;BME280;7185;51.854;6.622;2022-08-19T05:05:42;101054.78;;;18.40;100.00
14204;BME280;7185;51.854;6.622;2022-08-19T05:08:18;101045.63;;;18.47;100.00
14204;BME280;7185;51.854;6.622;2022-08-19T05:10:51;101051.66;;;18.51;100.00
14204;BME280;7185;51.854;6.622;2022-08-19T05:13:26;101054.22;;;18.53;100.00
14204;BME280;7185;51.854;6.622;2022-08-19T05:15:59;101057.53;;;18.58;100.00
14204;BME280;7185;51.854;6.622;2022-08-19T05:18:38;101064.47;;;18.62;100.00
14204;BME280;7185;51.854;6.622;2022-08-19T05:21:28;101066.22;;;18.61;100.00
14204;BME280;7185;51.854;6.622;2022-08-19T05:24:18;101065.63;;;18.75;100.00
14204;BME280;7185;51.854;6.622;2022-08-19T05:26:52;101056.72;;;18.76;100.00
14204;BME280;7185;51.854;6.622;2022-08-19T05:29:27;101065.34;;;18.82;100.00
14204;BME280;7185;51.854;6.622;2022-08-19T05:32:04;101067.59;;;18.91;100.00
14204;BME280;7185;51.854;6.622;2022-08-19T05:34:40;101064.53;;;19.00;100.00
14204;BME280;7185;51.854;6.622;2022-08-19T05:37:12;101064.09;;;19.09;100.00
14204;BME280;7185;51.854;6.622;2022-08-19T05:39:44;101069.34;;;19.11;100.00
14204;BME280;7185;51.854;6.622;2022-08-19T05:42:17;101068.72;;;19.25;100.00
14204;BME280;7185;51.854;6.622;2022-08-19T05:44:51;101063.81;;;19.35;100.00
14204;BME280;7185;51.854;6.622;2022-08-19T05:47:23;101066.25;;;19.39;100.00
14204;BME280;7185;51.854;6.622;2022-08-19T05:49:56;101071.81;;;19.52;100.00
14204;BME280;7185;51.854;6.622;2022-08-19T05:52:27;101071.25;;;19.65;100.00
14204;BME280;7185;51.854;6.622;2022-08-19T05:54:59;101064.31;;;19.80;100.00
14204;BME280;7185;51.854;6.622;2022-08-19T05:57:31;101057.84;;;19.85;100.00
14204;BME280;7185;51.854;6.622;2022-08-19T06:00:04;101059.41;;;19.89;100.00
14204;BME280;7185;51.854;6.622;2022-08-19T06:02:39;101055.28;;;19.84;100.00
14204;BME280;7185;51.854;6.622;2022-08-19T06:05:12;101068.91;;;19.95;100.00
14204;BME280;7185;51.854;6.622;2022-08-19T06:07:47;101066.72;;;20.03;100.00
14204;BME280;7185;51.854;6.622;2022-08-19T06:10:19;101064.16;;;19.83;100.00
14204;BME280;7185;51.854;6.622;2022-08-19T06:12:52;101075.31;;;19.91;100.00
14204;BME280;7185;51.854;6.622;2022-08-19T06:15:24;101066.84;;;20.00;100.00
14204;BME280;7185;51.854;6.622;2022-08-19T06:17:58;101061.94;;;19.73;100.00
14204;BME280;7185;51.854;6.622;2022-08-19T06:20:31;101066.84;;;19.64;100.00
14204;BME280;7185;51.854;6.622;2022-08-19T06:23:03;101059.25;;;19.56;100.00
14204;BME280;7185;51.854;6.622;2022-08-19T06:25:35;101070.47;;;19.43;100.00
14204;BME280;7185;51.854;6.622;2022-08-19T06:28:07;101069.97;;;19.35;100.00
14204;BME280;7185;51.854;6.622;2022-08-19T06:30:38;101074.72;;;19.48;100.00
14204;BME280;7185;51.854;6.622;2022-08-19T06:33:10;101074.75;;;19.65;100.00
14204;BME280;7185;51.854;6.622;2022-08-19T06:35:43;101066.03;;;19.81;100.00
14204;BME280;7185;51.854;6.622;2022-08-19T06:38:17;101071.63;;;19.94;100.00
14204;BME280;7185;51.854;6.622;2022-08-19T06:40:50;101074.75;;;20.02;100.00
14204;BME280;7185;51.854;6.622;2022-08-19T06:43:22;101074.69;;;20.03;100.00
14204;BME280;7185;51.854;6.622;2022-08-19T06:45:53;101076.97;;;20.11;100.00
14204;BME280;7185;51.854;6.622;2022-08-19T06:48:25;101081.81;;;20.20;100.00
14204;BME280;7185;51.854;6.622;2022-08-19T06:50:58;101084.88;;;20.30;100.00
14204;BME280;7185;51.854;6.622;2022-08-19T06:53:30;101085.81;;;20.47;100.00
14204;BME280;7185;51.854;6.622;2022-08-19T06:56:02;101088.84;;;20.57;100.00
14204;BME280;7185;51.854;6.622;2022-08-19T06:58:34;101089.81;;;20.72;100.00
14204;BME280;7185;51.854;6.622;2022-08-19T07:01:06;101092.97;;;20.80;100.00
14204;BME280;7185;51.854;6.622;2022-08-19T07:03:39;101080.97;;;20.89;100.00
14204;BME280;7185;51.854;6.622;2022-08-19T07:06:14;101086.16;;;21.08;100.00
14204;BME280;7185;51.854;6.622;2022-08-19T07:08:47;101081.28;;;21.16;100.00
14204;BME280;7185;51.854;6.622;2022-08-19T07:11:20;101080.66;;;21.43;100.00
14204;BME280;7185;51.854;6.622;2022-08-19T07:13:52;101082.94;;;21.67;100.00
14204;BME280;7185;51.854;6.622;2022-08-19T07:16:25;101083.16;;;21.78;100.00
14204;BME280;7185;51.854;6.622;2022-08-19T07:18:57;101085.09;;;21.90;100.00
14204;BME280;7185;51.854;6.622;2022-08-19T07:21:30;101094.69;;;21.94;100.00
14204;BME280;7185;51.854;6.622;2022-08-19T07:24:03;101083.53;;;22.02;100.00
14204;BME280;7185;51.854;6.622;2022-08-19T07:26:38;101078.88;;;22.06;100.00
14204;BME280;7185;51.854;6.622;2022-08-19T07:29:11;101086.72;;;22.09;100.00
14204;BME280;7185;51.854;6.622;2022-08-19T07:31:45;101078.53;;;22.26;99.89
14204;BME280;7185;51.854;6.622;2022-08-19T07:34:18;101081.22;;;22.26;99.16
14204;BME280;7185;51.854;6.622;2022-08-19T07:36:52;101086.66;;;22.25;98.75
14204;BME280;7185;51.854;6.622;2022-08-19T07:39:27;101088.75;;;22.50;95.62
14204;BME280;7185;51.854;6.622;2022-08-19T07:42:07;101101.16;;;22.51;91.43
14204;BME280;7185;51.854;6.622;2022-08-19T07:44:39;101111.53;;;22.56;91.33
14204;BME280;7185;51.854;6.622;2022-08-19T07:47:11;101108.97;;;22.69;92.87
14204;BME280;7185;51.854;6.622;2022-08-19T07:49:45;101115.50;;;22.79;92.48
14204;BME280;7185;51.854;6.622;2022-08-19T07:52:18;101117.19;;;22.80;91.71
14204;BME280;7185;51.854;6.622;2022-08-19T07:54:50;101111.28;;;22.89;90.98
14204;BME280;7185;51.854;6.622;2022-08-19T07:57:22;101116.84;;;23.15;88.71
14204;BME280;7185;51.854;6.622;2022-08-19T07:59:54;101117.81;;;23.29;88.99
14204;BME280;7185;51.854;6.622;2022-08-19T08:02:26;101121.59;;;23.24;87.70
14204;BME280;7185;51.854;6.622;2022-08-19T08:04:58;101117.41;;;23.35;87.52
14204;BME280;7185;51.854;6.622;2022-08-19T08:07:48;101124.94;;;23.43;85.76
14204;BME280;7185;51.854;6.622;2022-08-19T08:10:37;101123.88;;;23.45;82.57
14204;BME280;7185;51.854;6.622;2022-08-19T08:13:09;101126.06;;;23.53;82.32
14204;BME280;7185;51.854;6.622;2022-08-19T08:15:40;101126.22;;;23.64;82.44
14204;BME280;7185;51.854;6.622;2022-08-19T08:18:14;101117.44;;;23.90;80.96
14204;BME280;7185;51.854;6.622;2022-08-19T08:20:46;101125.09;;;23.81;80.27
14204;BME280;7185;51.854;6.622;2022-08-19T08:23:19;101127.25;;;24.03;79.57
14204;BME280;7185;51.854;6.622;2022-08-19T08:25:56;101126.69;;;23.98;78.04
14204;BME280;7185;51.854;6.622;2022-08-19T08:28:28;101137.22;;;24.14;77.24
14204;BME280;7185;51.854;6.622;2022-08-19T08:31:00;101139.75;;;24.30;77.48
14204;BME280;7185;51.854;6.622;2022-08-19T08:33:34;101142.88;;;24.37;76.72
14204;BME280;7185;51.854;6.622;2022-08-19T08:36:07;101138.16;;;24.41;75.18
14204;BME280;7185;51.854;6.622;2022-08-19T08:38:41;101140.41;;;24.47;75.73
14204;BME280;7185;51.854;6.622;2022-08-19T08:41:22;101149.13;;;24.63;73.61
14204;BME280;7185;51.854;6.622;2022-08-19T08:43:58;101137.91;;;24.97;72.66
14204;BME280;7185;51.854;6.622;2022-08-19T08:46:34;101137.22;;;25.06;71.72
14204;BME280;7185;51.854;6.622;2022-08-19T08:49:20;101136.47;;;25.17;69.95
14204;BME280;7185;51.854;6.622;2022-08-19T08:52:04;101131.72;;;25.34;69.44
14204;BME280;7185;51.854;6.622;2022-08-19T08:54:40;101127.78;;;25.39;70.20
14204;BME280;7185;51.854;6.622;2022-08-19T08:57:21;101127.63;;;25.54;68.64
14204;BME280;7185;51.854;6.622;2022-08-19T08:59:57;101128.59;;;25.53;67.68
14204;BME280;7185;51.854;6.622;2022-08-19T09:02:29;101126.25;;;25.72;68.69
14204;BME280;7185;51.854;6.622;2022-08-19T09:05:01;101124.53;;;25.71;67.54
14204;BME280;7185;51.854;6.622;2022-08-19T09:10:16;101120.41;;;25.78;66.58
14204;BME280;7185;51.854;6.622;2022-08-19T09:12:55;101125.50;;;25.94;65.02
14204;BME280;7185;51.854;6.622;2022-08-19T09:15:36;101128.50;;;26.38;63.39
14204;BME280;7185;51.854;6.622;2022-08-19T09:18:11;101130.97;;;26.53;61.59
14204;BME280;7185;51.854;6.622;2022-08-19T09:20:43;101122.31;;;26.72;61.96
14204;BME280;7185;51.854;6.622;2022-08-19T09:23:14;101120.78;;;26.92;60.79
14204;BME280;7185;51.854;6.622;2022-08-19T09:25:48;101122.84;;;27.00;58.87
14204;BME280;7185;51.854;6.622;2022-08-19T09:28:19;101114.16;;;27.30;58.15
14204;BME280;7185;51.854;6.622;2022-08-19T09:30:51;101115.84;;;27.54;56.98
14204;BME280;7185;51.854;6.622;2022-08-19T09:33:23;101100.44;;;27.77;56.55
14204;BME280;7185;51.854;6.622;2022-08-19T09:36:02;101105.53;;;27.92;56.51
14204;BME280;7185;51.854;6.622;2022-08-19T09:38:35;101110.38;;;27.77;55.98
14204;BME280;7185;51.854;6.622;2022-08-19T09:41:11;101112.66;;;28.25;56.41
14204;BME280;7185;51.854;6.622;2022-08-19T09:43:45;101118.34;;;28.11;55.39
14204;BME280;7185;51.854;6.622;2022-08-19T09:46:18;101114.75;;;28.43;55.01
14204;BME280;7185;51.854;6.622;2022-08-19T09:48:51;101105.25;;;27.74;55.30
14204;BME280;7185;51.854;6.622;2022-08-19T09:51:25;101105.16;;;27.96;55.40
14204;BME280;7185;51.854;6.622;2022-08-19T09:54:00;101113.03;;;28.21;54.72
14204;BME280;7185;51.854;6.622;2022-08-19T09:56:34;101111.53;;;28.49;54.08
14204;BME280;7185;51.854;6.622;2022-08-19T09:59:05;101109.97;;;28.99;53.42
14204;BME280;7185;51.854;6.622;2022-08-19T10:01:38;101108.75;;;29.22;50.16
14204;BME280;7185;51.854;6.622;2022-08-19T10:04:09;101106.16;;;29.11;49.83
14204;BME280;7185;51.854;6.622;2022-08-19T10:06:42;101114.13;;;29.22;49.39
14204;BME280;7185;51.854;6.622;2022-08-19T10:09:16;101111.50;;;28.91;49.93
14204;BME280;7185;51.854;6.622;2022-08-19T10:11:50;101117.56;;;28.62;47.52
14204;BME280;7185;51.854;6.622;2022-08-19T10:14:21;101109.63;;;28.61;47.53
14204;BME280;7185;51.854;6.622;2022-08-19T10:16:53;101103.97;;;28.95;48.15
14204;BME280;7185;51.854;6.622;2022-08-19T10:19:25;101106.50;;;29.28;49.38
14204;BME280;7185;51.854;6.622;2022-08-19T10:22:03;101101.09;;;29.28;48.15
14204;BME280;7185;51.854;6.622;2022-08-19T10:24:35;101097.63;;;29.06;47.81
14204;BME280;7185;51.854;6.622;2022-08-19T10:27:08;101094.88;;;29.37;46.76
14204;BME280;7185;51.854;6.622;2022-08-19T10:29:41;101086.53;;;29.69;47.18
14204;BME280;7185;51.854;6.622;2022-08-19T10:32:13;101086.69;;;29.78;45.71
14204;BME280;7185;51.854;6.622;2022-08-19T10:34:44;101094.25;;;29.23;46.32
14204;BME280;7185;51.854;6.622;2022-08-19T10:37:17;101089.06;;;29.01;46.46
14204;BME280;7185;51.854;6.622;2022-08-19T10:39:49;101099.84;;;29.32;45.48
14204;BME280;7185;51.854;6.622;2022-08-19T10:42:22;101094.88;;;29.37;44.71
14204;BME280;7185;51.854;6.622;2022-08-19T10:44:53;101095.44;;;29.40;45.38
14204;BME280;7185;51.854;6.622;2022-08-19T10:47:25;101077.88;;;30.15;43.82
14204;BME280;7185;51.854;6.622;2022-08-19T10:49:56;101081.88;;;30.01;43.53
14204;BME280;7185;51.854;6.622;2022-08-19T10:52:48;101077.47;;;30.67;42.40
14204;BME280;7185;51.854;6.622;2022-08-19T10:55:22;101080.31;;;30.75;41.05
14204;BME280;7185;51.854;6.622;2022-08-19T10:58:14;101077.09;;;30.90;40.59
14204;BME280;7185;51.854;6.622;2022-08-19T11:00:51;101072.84;;;30.77;41.09
14204;BME280;7185;51.854;6.622;2022-08-19T11:03:24;101072.69;;;30.41;41.90
14204;BME280;7185;51.854;6.622;2022-08-19T11:05:59;101058.09;;;30.72;40.14
14204;BME280;7185;51.854;6.622;2022-08-19T11:08:31;101060.81;;;30.99;39.74
14204;BME280;7185;51.854;6.622;2022-08-19T11:11:05;101058.50;;;31.51;38.67
14204;BME280;7185;51.854;6.622;2022-08-19T11:13:40;101066.78;;;31.03;39.80
14204;BME280;7185;51.854;6.622;2022-08-19T11:16:13;101068.44;;;31.78;39.38
14204;BME280;7185;51.854;6.622;2022-08-19T11:18:48;101060.50;;;32.21;37.80
14204;BME280;7185;51.854;6.622;2022-08-19T11:21:22;101065.53;;;31.43;35.73
14204;BME280;7185;51.854;6.622;2022-08-19T11:23:56;101072.13;;;30.85;38.35
14204;BME280;7185;51.854;6.622;2022-08-19T11:26:29;101071.41;;;31.39;37.86
14204;BME280;7185;51.854;6.622;2022-08-19T11:29:04;101070.13;;;31.61;37.53
14204;BME280;7185;51.854;6.622;2022-08-19T11:31:37;101066.03;;;31.93;37.52
14204;BME280;7185;51.854;6.622;2022-08-19T11:34:10;101062.59;;;32.62;36.42
14204;BME280;7185;51.854;6.622;2022-08-19T11:36:45;101058.66;;;32.56;36.44
14204;BME280;7185;51.854;6.622;2022-08-19T11:39:20;101053.78;;;32.94;36.03
14204;BME280;7185;51.854;6.622;2022-08-19T11:41:52;101056.25;;;32.79;36.60
14204;BME280;7185;51.854;6.622;2022-08-19T11:44:25;101055.19;;;33.15;36.32
14204;BME280;7185;51.854;6.622;2022-08-19T11:46:57;101056.16;;;32.97;35.77
14204;BME280;7185;51.854;6.622;2022-08-19T11:49:30;101052.81;;;33.12;35.07
14204;BME280;7185;51.854;6.622;2022-08-19T11:52:02;101052.53;;;33.31;34.50
14204;BME280;7185;51.854;6.622;2022-08-19T11:54:34;101059.34;;;32.93;36.01
14204;BME280;7185;51.854;6.622;2022-08-19T11:57:06;101064.25;;;32.89;35.18
14204;BME280;7185;51.854;6.622;2022-08-19T11:59:39;101065.16;;;33.57;34.96
14204;BME280;7185;51.854;6.622;2022-08-19T12:02:10;101062.09;;;33.44;33.47
14204;BME280;7185;51.854;6.622;2022-08-19T12:04:42;101061.91;;;32.60;34.66
14204;BME280;7185;51.854;6.622;2022-08-19T12:07:14;101058.41;;;32.76;34.54
14204;BME280;7185;51.854;6.622;2022-08-19T12:09:45;101062.66;;;33.13;33.98
14204;BME280;7185;51.854;6.622;2022-08-19T12:12:17;101057.72;;;33.84;33.28
14204;BME280;7185;51.854;6.622;2022-08-19T12:14:50;101060.06;;;33.62;33.17
14204;BME280;7185;51.854;6.622;2022-08-19T12:17:26;101057.00;;;33.74;33.10
14204;BME280;7185;51.854;6.622;2022-08-19T12:20:00;101055.47;;;33.63;33.75
14204;BME280;7185;51.854;6.622;2022-08-19T12:22:31;101047.00;;;33.74;34.92
14204;BME280;7185;51.854;6.622;2022-08-19T12:25:04;101050.56;;;33.99;33.55
14204;BME280;7185;51.854;6.622;2022-08-19T12:27:36;101053.59;;;33.55;33.89
14204;BME280;7185;51.854;6.622;2022-08-19T12:30:12;101053.44;;;33.98;34.27
14204;BME280;7185;51.854;6.622;2022-08-19T12:32:44;101054.25;;;34.31;34.11
14204;BME280;7185;51.854;6.622;2022-08-19T12:35:16;101062.25;;;32.91;36.22
14204;BME280;7185;51.854;6.622;2022-08-19T12:37:48;101064.03;;;31.77;38.99
14204;BME280;7185;51.854;6.622;2022-08-19T12:40:20;101064.59;;;31.35;40.58
14204;BME280;7185;51.854;6.622;2022-08-19T12:42:52;101059.44;;;30.86;41.01
14204;BME280;7185;51.854;6.622;2022-08-19T12:45:24;101054.53;;;30.99;41.40
14204;BME280;7185;51.854;6.622;2022-08-19T12:47:56;101051.53;;;31.30;39.54
14204;BME280;7185;51.854;6.622;2022-08-19T12:50:28;101044.44;;;31.65;38.31
14204;BME280;7185;51.854;6.622;2022-08-19T12:53:00;101050.19;;;31.34;39.52
14204;BME280;7185;51.854;6.622;2022-08-19T12:55:32;101043.66;;;31.09;39.99
14204;BME280;7185;51.854;6.622;2022-08-19T12:58:04;101037.47;;;31.81;39.72
14204;BME280;7185;51.854;6.622;2022-08-19T13:00:37;101042.94;;;32.33;37.49
14204;BME280;7185;51.854;6.622;2022-08-19T13:03:08;101038.47;;;32.85;37.00
14204;BME280;7185;51.854;6.622;2022-08-19T13:05:40;101038.16;;;32.27;37.36
14204;BME280;7185;51.854;6.622;2022-08-19T13:08:11;101042.56;;;32.28;37.58
14204;BME280;7185;51.854;6.622;2022-08-19T13:10:43;101040.69;;;32.29;37.22
14204;BME280;7185;51.854;6.622;2022-08-19T13:13:15;101036.84;;;32.39;37.14
14204;BME280;7185;51.854;6.622;2022-08-19T13:15:48;101039.63;;;32.48;36.30
14204;BME280;7185;51.854;6.622;2022-08-19T13:18:19;101044.44;;;32.28;36.42
14204;BME280;7185;51.854;6.622;2022-08-19T13:20:51;101040.50;;;32.83;35.34
14204;BME280;7185;51.854;6.622;2022-08-19T13:23:23;101036.75;;;32.49;36.26
14204;BME280;7185;51.854;6.622;2022-08-19T13:25:58;101032.69;;;32.80;36.20
14204;BME280;7185;51.854;6.622;2022-08-19T13:28:30;101032.13;;;32.41;35.01
14204;BME280;7185;51.854;6.622;2022-08-19T13:31:25;101032.06;;;33.02;34.26
14204;BME280;7185;51.854;6.622;2022-08-19T13:34:16;101025.59;;;32.95;34.68
14204;BME280;7185;51.854;6.622;2022-08-19T13:36:52;101030.09;;;32.78;33.76